createdAt,value
2022-09-07T00:00:58.966Z,18.73
2022-09-07T00:03:28.497Z,18.70
2022-09-07T00:05:56.582Z,18.69
2022-09-07T00:08:27.213Z,18.66
2022-09-07T00:10:56.977Z,18.63
2022-09-07T00:13:26.256Z,18.61
2022-09-07T00:15:54.221Z,18.57
2022-09-07T00:18:23.243Z,18.55
2022-09-07T00:21:00.628Z,18.50
2022-09-07T00:23:29.808Z,18.48
2022-09-07T00:26:01.531Z,18.46
2022-09-07T00:28:29.872Z,18.43
2022-09-07T00:30:58.070Z,18.41
2022-09-07T00:33:26.269Z,18.39
2022-09-07T00:35:54.159Z,18.39
2022-09-07T00:38:23.471Z,18.36
2022-09-07T00:40:51.328Z,18.37
2022-09-07T00:43:31.423Z,18.38
2022-09-07T00:45:59.511Z,18.37
2022-09-07T00:48:32.607Z,18.39
2022-09-07T00:51:04.086Z,18.37
2022-09-07T00:53:36.690Z,18.36
2022-09-07T00:56:07.412Z,18.35
2022-09-07T00:58:38.094Z,18.34
2022-09-07T01:01:06.214Z,18.33
2022-09-07T01:03:39.882Z,18.31
2022-09-07T01:06:13.431Z,18.30
2022-09-07T01:08:43.876Z,18.30
2022-09-07T01:11:12.920Z,18.31
2022-09-07T01:13:42.078Z,18.30
2022-09-07T01:16:19.758Z,18.29
2022-09-07T01:19:00.356Z,18.28
2022-09-07T01:21:34.159Z,18.26
2022-09-07T01:24:35.491Z,18.23
2022-09-07T01:27:50.334Z,18.21
2022-09-07T01:30:20.157Z,18.20
2022-09-07T01:33:02.488Z,18.18
2022-09-07T01:35:39.671Z,18.17
2022-09-07T01:38:15.990Z,18.16
2022-09-07T01:40:49.996Z,18.13
2022-09-07T01:43:26.963Z,18.11
2022-09-07T01:45:58.130Z,18.10
2022-09-07T01:48:27.488Z,18.08
2022-09-07T01:50:59.055Z,18.07
2022-09-07T01:53:33.723Z,18.06
2022-09-07T01:56:06.718Z,18.03
2022-09-07T01:58:40.554Z,18.01
2022-09-07T02:01:12.382Z,18.00
2022-09-07T02:03:45.926Z,17.97
2022-09-07T02:06:17.930Z,17.94
2022-09-07T02:08:55.211Z,17.93
2022-09-07T02:11:30.823Z,17.90
2022-09-07T02:14:02.950Z,17.85
2022-09-07T02:16:33.476Z,17.84
2022-09-07T02:19:05.889Z,17.84
2022-09-07T02:21:35.410Z,17.82
2022-09-07T02:24:07.314Z,17.82
2022-09-07T02:26:40.002Z,17.81
2022-09-07T02:29:09.480Z,17.79
2022-09-07T02:31:37.563Z,17.77
2022-09-07T02:34:05.533Z,17.76
2022-09-07T02:36:39.540Z,17.73
2022-09-07T02:39:07.446Z,17.74
2022-09-07T02:41:38.855Z,17.74
2022-09-07T02:44:14.079Z,17.76
2022-09-07T02:47:06.828Z,17.77
2022-09-07T02:50:02.192Z,17.78
2022-09-07T02:52:42.311Z,17.78
2022-09-07T02:55:22.016Z,17.79
2022-09-07T02:58:02.112Z,17.79
2022-09-07T03:00:35.829Z,17.79
2022-09-07T03:03:13.595Z,17.79
2022-09-07T03:05:46.179Z,17.80
2022-09-07T03:08:19.284Z,17.82
2022-09-07T03:10:48.556Z,17.81
2022-09-07T03:13:24.135Z,17.82
2022-09-07T03:15:55.994Z,17.82
2022-09-07T03:18:24.850Z,17.82
2022-09-07T03:20:52.728Z,17.81
2022-09-07T03:23:20.735Z,17.83
2022-09-07T03:25:48.838Z,17.93
2022-09-07T03:28:17.103Z,18.07
2022-09-07T03:30:46.220Z,18.19
2022-09-07T03:33:16.126Z,18.28
2022-09-07T03:35:44.507Z,18.33
2022-09-07T03:38:12.402Z,18.36
2022-09-07T03:40:40.386Z,18.40
2022-09-07T03:43:08.287Z,18.43
2022-09-07T03:45:36.223Z,18.44
2022-09-07T03:48:04.278Z,18.46
2022-09-07T03:50:33.598Z,18.47
2022-09-07T03:53:01.448Z,18.46
2022-09-07T03:55:29.290Z,18.44
2022-09-07T03:57:57.249Z,18.44
2022-09-07T04:00:26.080Z,18.42
2022-09-07T04:02:54.058Z,18.40
2022-09-07T04:05:21.983Z,18.39
2022-09-07T04:07:52.476Z,18.38
2022-09-07T04:10:20.349Z,18.36
2022-09-07T04:12:48.200Z,18.37
2022-09-07T04:15:16.282Z,18.34
2022-09-07T04:17:44.100Z,18.35
2022-09-07T04:20:11.994Z,18.33
2022-09-07T04:22:39.859Z,18.33
2022-09-07T04:25:09.743Z,18.32
2022-09-07T04:27:37.669Z,18.30
2022-09-07T04:30:06.165Z,18.28
2022-09-07T04:32:34.116Z,18.27
2022-09-07T04:35:02.009Z,18.25
2022-09-07T04:37:29.916Z,18.22
2022-09-07T04:39:57.818Z,18.18
2022-09-07T04:42:27.129Z,18.17
2022-09-07T04:44:54.974Z,18.14
2022-09-07T04:47:22.863Z,18.12
2022-09-07T04:49:51.594Z,18.11
2022-09-07T04:52:19.723Z,18.11
2022-09-07T04:54:50.543Z,18.10
2022-09-07T04:57:21.576Z,18.10
2022-09-07T04:59:51.962Z,18.10
2022-09-07T05:02:20.480Z,18.10
2022-09-07T05:04:48.437Z,18.11
2022-09-07T05:07:16.335Z,18.12
2022-09-07T05:09:44.204Z,18.11
2022-09-07T05:12:12.075Z,18.12
2022-09-07T05:14:39.936Z,18.13
2022-09-07T05:17:09.222Z,18.13
2022-09-07T05:19:37.559Z,18.14
2022-09-07T05:22:05.494Z,18.14
2022-09-07T05:24:33.928Z,18.17
2022-09-07T05:27:02.839Z,18.16
2022-09-07T05:32:20.006Z,18.18
2022-09-07T05:34:50.842Z,18.19
2022-09-07T05:37:20.225Z,18.18
2022-09-07T05:39:48.231Z,18.18
2022-09-07T05:42:16.291Z,18.19
2022-09-07T05:44:45.104Z,18.21
2022-09-07T05:47:13.782Z,18.23
2022-09-07T05:49:43.096Z,18.27
2022-09-07T05:52:11.239Z,18.31
2022-09-07T05:54:39.129Z,18.32
2022-09-07T05:57:07.451Z,18.35
2022-09-07T05:59:35.411Z,18.36
2022-09-07T06:02:03.505Z,18.36
2022-09-07T06:04:31.584Z,18.36
2022-09-07T06:12:36.866Z,18.41
2022-09-07T06:15:05.961Z,18.42
2022-09-07T06:17:33.968Z,18.44
2022-09-07T06:20:01.883Z,18.47
2022-09-07T06:22:31.443Z,18.48
2022-09-07T06:24:59.817Z,18.45
2022-09-07T06:27:27.734Z,18.42
2022-09-07T06:29:55.672Z,18.39
2022-09-07T06:35:12.269Z,18.41
2022-09-07T06:37:41.765Z,18.43
2022-09-07T06:40:11.610Z,18.46
2022-09-07T06:42:39.680Z,18.49
2022-09-07T06:45:11.292Z,18.54
2022-09-07T06:47:39.790Z,18.60
2022-09-07T06:50:08.790Z,18.63
2022-09-07T06:55:27.624Z,18.75
2022-09-07T06:57:55.601Z,18.83
2022-09-07T07:00:23.487Z,18.88
2022-09-07T07:02:51.417Z,18.94
2022-09-07T07:05:19.355Z,19.00
2022-09-07T07:07:47.255Z,19.08
2022-09-07T07:10:15.233Z,19.14
2022-09-07T07:15:11.490Z,19.26
2022-09-07T07:17:39.338Z,19.31
2022-09-07T07:20:08.304Z,19.39
2022-09-07T07:22:46.731Z,19.45
2022-09-07T07:25:16.000Z,19.51
2022-09-07T07:27:46.371Z,19.56
2022-09-07T07:30:14.681Z,19.66
2022-09-07T07:32:43.067Z,19.69
2022-09-07T07:35:11.660Z,19.71
2022-09-07T07:37:39.763Z,19.74
2022-09-07T07:42:41.592Z,19.78
2022-09-07T07:48:00.322Z,19.80
2022-09-07T07:50:32.173Z,19.84
2022-09-07T07:55:49.198Z,19.91
2022-09-07T07:58:17.108Z,19.94
2022-09-07T08:00:55.499Z,19.97
2022-09-07T08:03:25.214Z,19.99
2022-09-07T08:05:53.795Z,20.01
2022-09-07T08:08:22.845Z,20.05
2022-09-07T08:10:51.432Z,20.10
2022-09-07T08:13:19.470Z,20.15
2022-09-07T08:15:48.891Z,20.20
2022-09-07T08:18:18.115Z,20.27
2022-09-07T08:20:45.963Z,20.34
2022-09-07T08:23:14.669Z,20.42
2022-09-07T08:25:51.464Z,20.46
2022-09-07T08:28:19.532Z,20.51
2022-09-07T08:30:48.829Z,20.57
2022-09-07T08:33:17.249Z,20.63
2022-09-07T08:35:55.387Z,20.71
2022-09-07T08:38:23.365Z,20.79
2022-09-07T08:40:51.938Z,20.88
2022-09-07T08:43:31.092Z,21.01
2022-09-07T08:46:07.171Z,21.12
2022-09-07T08:48:36.161Z,21.18
2022-09-07T08:51:11.519Z,21.24
2022-09-07T08:53:46.769Z,21.33
2022-09-07T08:56:20.103Z,21.37
2022-09-07T08:58:50.394Z,21.43
2022-09-07T09:01:31.544Z,21.49
2022-09-07T09:04:16.475Z,21.59
2022-09-07T09:06:54.547Z,21.71
2022-09-07T09:09:32.679Z,21.82
2022-09-07T09:12:14.343Z,21.89
2022-09-07T09:14:58.268Z,21.99
2022-09-07T09:17:33.537Z,22.11
2022-09-07T09:20:09.136Z,22.19
2022-09-07T09:25:18.119Z,22.36
2022-09-07T09:27:45.949Z,22.43
2022-09-07T09:30:15.629Z,22.50
2022-09-07T09:32:46.469Z,22.58
2022-09-07T09:35:17.693Z,22.66
2022-09-07T09:37:48.520Z,22.74
2022-09-07T09:40:23.541Z,22.82
2022-09-07T09:43:01.778Z,22.91
2022-09-07T09:46:12.171Z,23.03
2022-09-07T09:48:23.895Z,23.20
2022-09-07T09:53:54.463Z,23.41
2022-09-07T09:56:23.091Z,23.50
2022-09-07T09:59:56.712Z,23.61
2022-09-07T10:04:34.029Z,23.87
2022-09-07T10:07:10.001Z,24.01
2022-09-07T10:09:45.203Z,24.16
2022-09-07T10:12:26.673Z,24.32
2022-09-07T10:14:56.544Z,24.42
2022-09-07T10:17:31.996Z,24.52
2022-09-07T10:20:38.157Z,24.53
